sensor_id;sensor_type;location;lat;lon;timestamp;P1;durP1;ratioP1;P2;durP2;ratioP2
16800;SDS011;8518;53.236;10.384;2023-02-23T00:01:14;24.83;;;16.00;;
16800;SDS011;8518;53.236;10.384;2023-02-23T00:03:45;24.50;;;15.53;;
16800;SDS011;8518;53.236;10.384;2023-02-23T00:06:13;24.00;;;15.83;;
16800;SDS011;8518;53.236;10.384;2023-02-23T00:08:40;28.47;;;15.83;;
16800;SDS011;8518;53.236;10.384;2023-02-23T00:11:07;22.90;;;15.27;;
16800;SDS011;8518;53.236;10.384;2023-02-23T00:16:58;25.87;;;14.97;;
16800;SDS011;8518;53.236;10.384;2023-02-23T00:19:24;22.87;;;15.40;;
16800;SDS011;8518;53.236;10.384;2023-02-23T00:25:12;23.87;;;14.47;;
16800;SDS011;8518;53.236;10.384;2023-02-23T00:27:39;27.93;;;16.37;;
16800;SDS011;8518;53.236;10.384;2023-02-23T00:30:10;24.87;;;15.73;;
16800;SDS011;8518;53.236;10.384;2023-02-23T00:36:06;23.63;;;16.13;;
16800;SDS011;8518;53.236;10.384;2023-02-23T00:38:34;26.00;;;15.63;;
16800;SDS011;8518;53.236;10.384;2023-02-23T00:41:04;23.77;;;15.23;;
16800;SDS011;8518;53.236;10.384;2023-02-23T00:46:56;24.77;;;15.73;;
16800;SDS011;8518;53.236;10.384;2023-02-23T00:52:44;22.67;;;15.57;;
16800;SDS011;8518;53.236;10.384;2023-02-23T00:55:11;26.83;;;15.60;;
16800;SDS011;8518;53.236;10.384;2023-02-23T00:57:37;24.63;;;15.90;;
16800;SDS011;8518;53.236;10.384;2023-02-23T01:00:04;25.60;;;15.70;;
16800;SDS011;8518;53.236;10.384;2023-02-23T01:06:08;23.70;;;15.10;;
16800;SDS011;8518;53.236;10.384;2023-02-23T01:08:36;25.97;;;16.30;;
16800;SDS011;8518;53.236;10.384;2023-02-23T01:11:05;26.73;;;16.07;;
16800;SDS011;8518;53.236;10.384;2023-02-23T01:16:55;27.77;;;15.97;;
16800;SDS011;8518;53.236;10.384;2023-02-23T01:19:21;24.67;;;16.40;;
16800;SDS011;8518;53.236;10.384;2023-02-23T01:25:09;26.90;;;15.67;;
16800;SDS011;8518;53.236;10.384;2023-02-23T01:30:58;23.43;;;15.80;;
16800;SDS011;8518;53.236;10.384;2023-02-23T01:36:46;28.43;;;15.77;;
16800;SDS011;8518;53.236;10.384;2023-02-23T01:42:38;29.70;;;16.50;;
16800;SDS011;8518;53.236;10.384;2023-02-23T01:45:39;27.33;;;15.57;;
16800;SDS011;8518;53.236;10.384;2023-02-23T01:48:00;28.73;;;16.90;;
16800;SDS011;8518;53.236;10.384;2023-02-23T01:56:35;29.50;;;15.77;;
16800;SDS011;8518;53.236;10.384;2023-02-23T01:59:08;28.83;;;16.07;;
16800;SDS011;8518;53.236;10.384;2023-02-23T02:01:37;28.60;;;15.30;;
16800;SDS011;8518;53.236;10.384;2023-02-23T02:04:04;28.97;;;16.83;;
16800;SDS011;8518;53.236;10.384;2023-02-23T02:06:31;28.93;;;16.00;;
16800;SDS011;8518;53.236;10.384;2023-02-23T02:09:03;28.40;;;16.13;;
16800;SDS011;8518;53.236;10.384;2023-02-23T02:11:32;26.87;;;14.93;;
16800;SDS011;8518;53.236;10.384;2023-02-23T02:14:09;28.90;;;16.40;;
16800;SDS011;8518;53.236;10.384;2023-02-23T02:25:37;28.37;;;15.77;;
16800;SDS011;8518;53.236;10.384;2023-02-23T02:37:00;24.20;;;15.33;;
16800;SDS011;8518;53.236;10.384;2023-02-23T02:46:18;25.20;;;15.63;;
16800;SDS011;8518;53.236;10.384;2023-02-23T02:48:50;30.43;;;16.27;;
16800;SDS011;8518;53.236;10.384;2023-02-23T02:51:40;29.70;;;16.10;;
16800;SDS011;8518;53.236;10.384;2023-02-23T02:56:52;31.13;;;16.57;;
16800;SDS011;8518;53.236;10.384;2023-02-23T02:59:21;27.90;;;17.00;;
16800;SDS011;8518;53.236;10.384;2023-02-23T03:05:44;26.60;;;15.67;;
16800;SDS011;8518;53.236;10.384;2023-02-23T03:12:02;31.67;;;17.00;;
16800;SDS011;8518;53.236;10.384;2023-02-23T03:15:07;35.33;;;17.57;;
16800;SDS011;8518;53.236;10.384;2023-02-23T03:18:09;31.43;;;17.73;;
16800;SDS011;8518;53.236;10.384;2023-02-23T03:21:07;34.83;;;18.23;;
16800;SDS011;8518;53.236;10.384;2023-02-23T03:24:27;32.27;;;17.37;;
16800;SDS011;8518;53.236;10.384;2023-02-23T03:30:36;29.80;;;17.97;;
16800;SDS011;8518;53.236;10.384;2023-02-23T03:37:13;40.67;;;19.20;;
16800;SDS011;8518;53.236;10.384;2023-02-23T03:46:24;35.20;;;18.23;;
16800;SDS011;8518;53.236;10.384;2023-02-23T03:52:45;37.90;;;20.00;;
16800;SDS011;8518;53.236;10.384;2023-02-23T03:55:35;38.37;;;18.80;;
16800;SDS011;8518;53.236;10.384;2023-02-23T03:58:57;45.03;;;19.50;;
16800;SDS011;8518;53.236;10.384;2023-02-23T04:01:37;44.13;;;19.93;;
16800;SDS011;8518;53.236;10.384;2023-02-23T04:04:22;29.90;;;18.73;;
16800;SDS011;8518;53.236;10.384;2023-02-23T04:07:09;40.93;;;19.13;;
16800;SDS011;8518;53.236;10.384;2023-02-23T04:09:58;43.47;;;19.73;;
16800;SDS011;8518;53.236;10.384;2023-02-23T04:16:08;39.53;;;18.57;;
16800;SDS011;8518;53.236;10.384;2023-02-23T04:18:35;49.67;;;19.40;;
16800;SDS011;8518;53.236;10.384;2023-02-23T04:21:03;37.67;;;20.37;;
16800;SDS011;8518;53.236;10.384;2023-02-23T04:26:52;29.60;;;17.87;;
16800;SDS011;8518;53.236;10.384;2023-02-23T04:29:17;30.00;;;18.27;;
16800;SDS011;8518;53.236;10.384;2023-02-23T04:31:43;44.07;;;20.30;;
16800;SDS011;8518;53.236;10.384;2023-02-23T04:34:09;32.33;;;18.70;;
16800;SDS011;8518;53.236;10.384;2023-02-23T04:36:36;52.37;;;19.27;;
16800;SDS011;8518;53.236;10.384;2023-02-23T04:39:04;37.20;;;18.67;;
16800;SDS011;8518;53.236;10.384;2023-02-23T04:41:30;37.97;;;18.87;;
16800;SDS011;8518;53.236;10.384;2023-02-23T04:43:56;34.50;;;18.37;;
16800;SDS011;8518;53.236;10.384;2023-02-23T04:46:21;32.33;;;18.57;;
16800;SDS011;8518;53.236;10.384;2023-02-23T04:48:47;47.03;;;19.87;;
16800;SDS011;8518;53.236;10.384;2023-02-23T04:51:13;37.40;;;20.67;;
16800;SDS011;8518;53.236;10.384;2023-02-23T04:57:00;44.97;;;18.63;;
16800;SDS011;8518;53.236;10.384;2023-02-23T05:02:48;38.73;;;18.27;;
16800;SDS011;8518;53.236;10.384;2023-02-23T05:05:14;41.37;;;19.83;;
16800;SDS011;8518;53.236;10.384;2023-02-23T05:07:39;57.87;;;19.57;;
16800;SDS011;8518;53.236;10.384;2023-02-23T05:10:07;51.93;;;19.10;;
16800;SDS011;8518;53.236;10.384;2023-02-23T05:15:56;39.47;;;19.80;;
16800;SDS011;8518;53.236;10.384;2023-02-23T05:21:44;39.23;;;20.03;;
16800;SDS011;8518;53.236;10.384;2023-02-23T05:24:09;38.10;;;20.17;;
16800;SDS011;8518;53.236;10.384;2023-02-23T05:26:35;31.53;;;18.77;;
16800;SDS011;8518;53.236;10.384;2023-02-23T05:29:01;60.77;;;20.47;;
16800;SDS011;8518;53.236;10.384;2023-02-23T05:31:27;56.00;;;20.17;;
16800;SDS011;8518;53.236;10.384;2023-02-23T05:33:53;47.13;;;19.93;;
16800;SDS011;8518;53.236;10.384;2023-02-23T05:36:19;43.97;;;19.97;;
16800;SDS011;8518;53.236;10.384;2023-02-23T05:38:46;31.27;;;17.67;;
16800;SDS011;8518;53.236;10.384;2023-02-23T05:41:12;31.43;;;18.70;;
16800;SDS011;8518;53.236;10.384;2023-02-23T05:47:02;44.37;;;18.87;;
16800;SDS011;8518;53.236;10.384;2023-02-23T05:49:27;34.57;;;18.80;;
16800;SDS011;8518;53.236;10.384;2023-02-23T05:55:16;45.83;;;19.60;;
16800;SDS011;8518;53.236;10.384;2023-02-23T05:57:41;30.17;;;19.47;;
16800;SDS011;8518;53.236;10.384;2023-02-23T06:00:09;28.10;;;19.67;;
16800;SDS011;8518;53.236;10.384;2023-02-23T06:05:59;33.03;;;18.87;;
16800;SDS011;8518;53.236;10.384;2023-02-23T06:08:25;45.60;;;21.47;;
16800;SDS011;8518;53.236;10.384;2023-02-23T06:10:51;53.30;;;19.47;;
16800;SDS011;8518;53.236;10.384;2023-02-23T06:16:39;32.07;;;19.50;;
16800;SDS011;8518;53.236;10.384;2023-02-23T06:19:04;32.90;;;19.97;;
16800;SDS011;8518;53.236;10.384;2023-02-23T06:21:31;35.70;;;20.13;;
16800;SDS011;8518;53.236;10.384;2023-02-23T06:23:57;33.03;;;19.37;;
16800;SDS011;8518;53.236;10.384;2023-02-23T06:26:25;34.53;;;21.40;;
16800;SDS011;8518;53.236;10.384;2023-02-23T06:28:51;34.07;;;20.53;;
16800;SDS011;8518;53.236;10.384;2023-02-23T06:31:16;34.90;;;21.27;;
16800;SDS011;8518;53.236;10.384;2023-02-23T06:33:42;31.67;;;21.17;;
16800;SDS011;8518;53.236;10.384;2023-02-23T06:36:07;33.67;;;21.80;;
16800;SDS011;8518;53.236;10.384;2023-02-23T06:38:34;35.00;;;21.97;;
16800;SDS011;8518;53.236;10.384;2023-02-23T06:41:05;40.13;;;23.70;;
16800;SDS011;8518;53.236;10.384;2023-02-23T06:46:54;36.00;;;21.63;;
16800;SDS011;8518;53.236;10.384;2023-02-23T06:49:21;42.90;;;24.03;;
16800;SDS011;8518;53.236;10.384;2023-02-23T06:55:08;41.90;;;24.23;;
16800;SDS011;8518;53.236;10.384;2023-02-23T06:57:34;42.37;;;23.53;;
16800;SDS011;8518;53.236;10.384;2023-02-23T07:00:00;41.00;;;24.87;;
16800;SDS011;8518;53.236;10.384;2023-02-23T07:05:48;39.83;;;22.77;;
16800;SDS011;8518;53.236;10.384;2023-02-23T07:08:16;41.77;;;23.90;;
16800;SDS011;8518;53.236;10.384;2023-02-23T07:10:43;40.03;;;22.77;;
16800;SDS011;8518;53.236;10.384;2023-02-23T07:16:31;40.03;;;23.43;;
16800;SDS011;8518;53.236;10.384;2023-02-23T07:18:57;42.90;;;24.30;;
16800;SDS011;8518;53.236;10.384;2023-02-23T07:21:22;41.27;;;24.43;;
16800;SDS011;8518;53.236;10.384;2023-02-23T07:23:48;41.00;;;22.93;;
16800;SDS011;8518;53.236;10.384;2023-02-23T07:26:14;38.20;;;23.17;;
16800;SDS011;8518;53.236;10.384;2023-02-23T07:28:41;41.30;;;24.23;;
16800;SDS011;8518;53.236;10.384;2023-02-23T07:31:07;44.37;;;25.13;;
16800;SDS011;8518;53.236;10.384;2023-02-23T07:36:55;41.23;;;23.90;;
16800;SDS011;8518;53.236;10.384;2023-02-23T07:39:21;46.33;;;26.33;;
16800;SDS011;8518;53.236;10.384;2023-02-23T07:45:09;44.67;;;25.73;;
16800;SDS011;8518;53.236;10.384;2023-02-23T07:47:36;46.63;;;26.47;;
16800;SDS011;8518;53.236;10.384;2023-02-23T07:50:02;43.50;;;25.67;;
16800;SDS011;8518;53.236;10.384;2023-02-23T07:55:56;49.77;;;27.60;;
16800;SDS011;8518;53.236;10.384;2023-02-23T08:01:44;48.80;;;27.63;;
16800;SDS011;8518;53.236;10.384;2023-02-23T08:04:10;48.13;;;27.77;;
16800;SDS011;8518;53.236;10.384;2023-02-23T08:06:35;51.83;;;28.37;;
16800;SDS011;8518;53.236;10.384;2023-02-23T08:09:02;57.50;;;29.83;;
16800;SDS011;8518;53.236;10.384;2023-02-23T08:11:29;47.53;;;27.83;;
16800;SDS011;8518;53.236;10.384;2023-02-23T08:13:55;49.10;;;28.63;;
16800;SDS011;8518;53.236;10.384;2023-02-23T08:16:25;56.30;;;29.87;;
16800;SDS011;8518;53.236;10.384;2023-02-23T08:18:52;49.83;;;28.00;;
16800;SDS011;8518;53.236;10.384;2023-02-23T08:21:18;45.77;;;26.70;;
16800;SDS011;8518;53.236;10.384;2023-02-23T08:23:43;44.40;;;27.23;;
16800;SDS011;8518;53.236;10.384;2023-02-23T08:26:09;49.83;;;27.77;;
16800;SDS011;8518;53.236;10.384;2023-02-23T08:28:35;47.43;;;28.97;;
16800;SDS011;8518;53.236;10.384;2023-02-23T08:31:01;47.03;;;28.23;;
16800;SDS011;8518;53.236;10.384;2023-02-23T08:36:49;48.80;;;28.37;;
16800;SDS011;8518;53.236;10.384;2023-02-23T08:39:15;47.60;;;27.90;;
16800;SDS011;8518;53.236;10.384;2023-02-23T08:41:40;45.50;;;27.63;;
16800;SDS011;8518;53.236;10.384;2023-02-23T08:44:06;46.73;;;28.67;;
16800;SDS011;8518;53.236;10.384;2023-02-23T08:46:32;44.90;;;27.50;;
16800;SDS011;8518;53.236;10.384;2023-02-23T08:48:58;46.83;;;29.07;;
16800;SDS011;8518;53.236;10.384;2023-02-23T08:51:23;45.83;;;28.53;;
16800;SDS011;8518;53.236;10.384;2023-02-23T08:53:49;46.53;;;28.10;;
16800;SDS011;8518;53.236;10.384;2023-02-23T08:56:15;45.73;;;29.17;;
16800;SDS011;8518;53.236;10.384;2023-02-23T08:58:41;42.73;;;27.10;;
16800;SDS011;8518;53.236;10.384;2023-02-23T09:01:12;45.27;;;27.83;;
16800;SDS011;8518;53.236;10.384;2023-02-23T09:07:03;43.47;;;27.10;;
16800;SDS011;8518;53.236;10.384;2023-02-23T09:09:29;40.20;;;25.83;;
16800;SDS011;8518;53.236;10.384;2023-02-23T09:15:16;41.97;;;25.07;;
16800;SDS011;8518;53.236;10.384;2023-02-23T09:17:42;45.00;;;27.43;;
16800;SDS011;8518;53.236;10.384;2023-02-23T09:20:09;41.77;;;26.77;;
16800;SDS011;8518;53.236;10.384;2023-02-23T09:26:03;38.20;;;25.27;;
16800;SDS011;8518;53.236;10.384;2023-02-23T09:28:30;38.40;;;25.07;;
16800;SDS011;8518;53.236;10.384;2023-02-23T09:30:58;36.43;;;25.07;;
16800;SDS011;8518;53.236;10.384;2023-02-23T09:36:52;35.37;;;24.00;;
16800;SDS011;8518;53.236;10.384;2023-02-23T09:39:19;37.57;;;24.00;;
16800;SDS011;8518;53.236;10.384;2023-02-23T09:45:16;32.03;;;22.60;;
16800;SDS011;8518;53.236;10.384;2023-02-23T09:51:11;30.77;;;20.80;;
16800;SDS011;8518;53.236;10.384;2023-02-23T09:57:04;30.20;;;20.63;;
16800;SDS011;8518;53.236;10.384;2023-02-23T09:59:36;28.83;;;20.33;;
16800;SDS011;8518;53.236;10.384;2023-02-23T10:05:25;27.27;;;18.23;;
16800;SDS011;8518;53.236;10.384;2023-02-23T10:07:58;26.40;;;19.00;;
16800;SDS011;8518;53.236;10.384;2023-02-23T10:16:35;22.90;;;16.17;;
16800;SDS011;8518;53.236;10.384;2023-02-23T10:22:28;22.80;;;15.83;;
16800;SDS011;8518;53.236;10.384;2023-02-23T10:25:03;20.70;;;16.20;;
16800;SDS011;8518;53.236;10.384;2023-02-23T10:27:39;21.30;;;15.87;;
16800;SDS011;8518;53.236;10.384;2023-02-23T10:30:15;21.53;;;15.83;;
16800;SDS011;8518;53.236;10.384;2023-02-23T10:36:50;19.90;;;15.20;;
16800;SDS011;8518;53.236;10.384;2023-02-23T10:39:05;19.50;;;14.63;;
16800;SDS011;8518;53.236;10.384;2023-02-23T10:41:32;19.20;;;13.97;;
16800;SDS011;8518;53.236;10.384;2023-02-23T10:43:58;17.23;;;13.57;;
16800;SDS011;8518;53.236;10.384;2023-02-23T10:46:25;16.40;;;13.07;;
16800;SDS011;8518;53.236;10.384;2023-02-23T10:49:00;14.27;;;11.70;;
16800;SDS011;8518;53.236;10.384;2023-02-23T10:51:28;14.53;;;11.67;;
16800;SDS011;8518;53.236;10.384;2023-02-23T10:53:57;11.17;;;10.00;;
16800;SDS011;8518;53.236;10.384;2023-02-23T10:56:22;11.20;;;9.70;;
16800;SDS011;8518;53.236;10.384;2023-02-23T10:58:49;9.77;;;8.47;;
16800;SDS011;8518;53.236;10.384;2023-02-23T11:04:20;10.30;;;8.73;;
16800;SDS011;8518;53.236;10.384;2023-02-23T11:06:51;10.97;;;9.00;;
16800;SDS011;8518;53.236;10.384;2023-02-23T11:09:32;14.00;;;10.33;;
16800;SDS011;8518;53.236;10.384;2023-02-23T11:17:58;16.33;;;11.50;;
16800;SDS011;8518;53.236;10.384;2023-02-23T11:20:32;16.30;;;11.63;;
16800;SDS011;8518;53.236;10.384;2023-02-23T11:26:41;18.23;;;12.00;;
16800;SDS011;8518;53.236;10.384;2023-02-23T11:32:08;20.40;;;13.57;;
16800;SDS011;8518;53.236;10.384;2023-02-23T11:34:39;21.37;;;13.80;;
16800;SDS011;8518;53.236;10.384;2023-02-23T11:37:20;25.37;;;15.63;;
16800;SDS011;8518;53.236;10.384;2023-02-23T11:39:57;25.57;;;15.93;;
16800;SDS011;8518;53.236;10.384;2023-02-23T11:45:47;28.47;;;17.47;;
16800;SDS011;8518;53.236;10.384;2023-02-23T11:48:20;31.07;;;18.63;;
16800;SDS011;8518;53.236;10.384;2023-02-23T11:50:49;29.23;;;18.23;;
16800;SDS011;8518;53.236;10.384;2023-02-23T11:56:39;38.23;;;21.67;;
16800;SDS011;8518;53.236;10.384;2023-02-23T12:02:27;48.07;;;23.87;;
16800;SDS011;8518;53.236;10.384;2023-02-23T12:10:03;61.03;;;28.47;;
16800;SDS011;8518;53.236;10.384;2023-02-23T12:22:12;61.73;;;31.43;;
16800;SDS011;8518;53.236;10.384;2023-02-23T12:28:08;57.07;;;28.60;;
16800;SDS011;8518;53.236;10.384;2023-02-23T12:30:26;56.23;;;29.67;;
16800;SDS011;8518;53.236;10.384;2023-02-23T12:36:41;66.07;;;30.83;;
16800;SDS011;8518;53.236;10.384;2023-02-23T12:39:15;64.00;;;32.03;;
16800;SDS011;8518;53.236;10.384;2023-02-23T12:45:28;62.67;;;31.00;;
16800;SDS011;8518;53.236;10.384;2023-02-23T12:48:10;69.20;;;32.20;;
16800;SDS011;8518;53.236;10.384;2023-02-23T12:50:54;62.33;;;30.83;;
16800;SDS011;8518;53.236;10.384;2023-02-23T12:56:47;61.07;;;27.90;;
16800;SDS011;8518;53.236;10.384;2023-02-23T12:59:29;61.57;;;29.47;;
16800;SDS011;8518;53.236;10.384;2023-02-23T13:05:26;62.30;;;28.50;;
16800;SDS011;8518;53.236;10.384;2023-02-23T13:08:03;59.50;;;27.67;;
16800;SDS011;8518;53.236;10.384;2023-02-23T13:16:43;67.37;;;28.23;;
16800;SDS011;8518;53.236;10.384;2023-02-23T13:25:27;67.23;;;29.10;;
16800;SDS011;8518;53.236;10.384;2023-02-23T13:27:58;76.37;;;32.00;;
16800;SDS011;8518;53.236;10.384;2023-02-23T13:30:26;77.53;;;31.00;;
16800;SDS011;8518;53.236;10.384;2023-02-23T13:36:18;77.17;;;30.33;;
16800;SDS011;8518;53.236;10.384;2023-02-23T13:57:11;76.30;;;30.67;;
16800;SDS011;8518;53.236;10.384;2023-02-23T13:59:41;69.50;;;29.33;;
16800;SDS011;8518;53.236;10.384;2023-02-23T14:05:36;68.53;;;28.57;;
16800;SDS011;8518;53.236;10.384;2023-02-23T14:11:07;67.73;;;29.23;;
16800;SDS011;8518;53.236;10.384;2023-02-23T14:17:07;65.67;;;27.10;;
16800;SDS011;8518;53.236;10.384;2023-02-23T14:19:36;64.60;;;27.80;;
16800;SDS011;8518;53.236;10.384;2023-02-23T14:28:01;64.83;;;28.23;;
16800;SDS011;8518;53.236;10.384;2023-02-23T14:30:46;67.70;;;29.17;;
16800;SDS011;8518;53.236;10.384;2023-02-23T14:36:41;69.57;;;28.03;;
16800;SDS011;8518;53.236;10.384;2023-02-23T14:39:15;61.00;;;27.70;;
16800;SDS011;8518;53.236;10.384;2023-02-23T14:45:19;60.40;;;26.87;;
16800;SDS011;8518;53.236;10.384;2023-02-23T14:47:51;67.67;;;28.37;;
16800;SDS011;8518;53.236;10.384;2023-02-23T14:50:24;61.23;;;26.77;;
16800;SDS011;8518;53.236;10.384;2023-02-23T14:56:21;63.87;;;27.80;;
16800;SDS011;8518;53.236;10.384;2023-02-23T15:02:23;63.23;;;27.30;;
16800;SDS011;8518;53.236;10.384;2023-02-23T15:04:50;69.83;;;27.93;;
16800;SDS011;8518;53.236;10.384;2023-02-23T15:07:28;67.00;;;28.43;;
16800;SDS011;8518;53.236;10.384;2023-02-23T15:09:58;62.97;;;26.47;;
16800;SDS011;8518;53.236;10.384;2023-02-23T15:15:47;70.13;;;29.83;;
16800;SDS011;8518;53.236;10.384;2023-02-23T15:21:36;66.53;;;27.33;;
16800;SDS011;8518;53.236;10.384;2023-02-23T15:24:11;64.77;;;27.50;;
16800;SDS011;8518;53.236;10.384;2023-02-23T15:26:40;62.73;;;26.57;;
16800;SDS011;8518;53.236;10.384;2023-02-23T15:29:12;65.30;;;28.83;;
16800;SDS011;8518;53.236;10.384;2023-02-23T15:31:40;68.37;;;28.13;;
16800;SDS011;8518;53.236;10.384;2023-02-23T15:34:14;63.07;;;27.47;;
16800;SDS011;8518;53.236;10.384;2023-02-23T15:36:45;68.20;;;28.80;;
16800;SDS011;8518;53.236;10.384;2023-02-23T15:39:16;60.00;;;27.30;;
16800;SDS011;8518;53.236;10.384;2023-02-23T15:45:13;59.40;;;26.10;;
16800;SDS011;8518;53.236;10.384;2023-02-23T15:47:51;61.17;;;26.13;;
16800;SDS011;8518;53.236;10.384;2023-02-23T15:50:18;64.23;;;27.33;;
16800;SDS011;8518;53.236;10.384;2023-02-23T15:56:11;60.63;;;26.33;;
16800;SDS011;8518;53.236;10.384;2023-02-23T15:58:40;59.77;;;26.10;;
16800;SDS011;8518;53.236;10.384;2023-02-23T16:01:16;56.27;;;25.37;;
16800;SDS011;8518;53.236;10.384;2023-02-23T16:03:58;60.17;;;25.87;;
16800;SDS011;8518;53.236;10.384;2023-02-23T16:06:38;58.47;;;26.57;;
16800;SDS011;8518;53.236;10.384;2023-02-23T16:15:23;62.87;;;25.67;;
16800;SDS011;8518;53.236;10.384;2023-02-23T16:20:29;61.70;;;25.90;;
16800;SDS011;8518;53.236;10.384;2023-02-23T16:26:33;59.27;;;26.43;;
16800;SDS011;8518;53.236;10.384;2023-02-23T16:29:05;59.27;;;25.87;;
16800;SDS011;8518;53.236;10.384;2023-02-23T16:31:41;60.03;;;26.57;;
16800;SDS011;8518;53.236;10.384;2023-02-23T16:36:48;61.13;;;25.93;;
16800;SDS011;8518;53.236;10.384;2023-02-23T16:39:18;55.97;;;25.17;;
16800;SDS011;8518;53.236;10.384;2023-02-23T16:45:08;61.33;;;25.30;;
16800;SDS011;8518;53.236;10.384;2023-02-23T16:47:41;59.67;;;26.77;;
16800;SDS011;8518;53.236;10.384;2023-02-23T16:50:12;57.60;;;24.47;;
16800;SDS011;8518;53.236;10.384;2023-02-23T16:56:04;60.57;;;25.50;;
16800;SDS011;8518;53.236;10.384;2023-02-23T16:58:36;63.13;;;25.00;;
16800;SDS011;8518;53.236;10.384;2023-02-23T17:01:08;53.43;;;23.20;;
16800;SDS011;8518;53.236;10.384;2023-02-23T17:06:59;59.40;;;23.73;;
16800;SDS011;8518;53.236;10.384;2023-02-23T17:09:24;57.33;;;22.83;;
16800;SDS011;8518;53.236;10.384;2023-02-23T17:15:13;49.00;;;20.67;;
16800;SDS011;8518;53.236;10.384;2023-02-23T17:21:07;47.63;;;20.57;;
16800;SDS011;8518;53.236;10.384;2023-02-23T17:26:56;42.40;;;18.43;;
16800;SDS011;8518;53.236;10.384;2023-02-23T17:29:22;39.47;;;16.97;;
16800;SDS011;8518;53.236;10.384;2023-02-23T17:31:48;34.67;;;16.13;;
16800;SDS011;8518;53.236;10.384;2023-02-23T17:34:16;32.50;;;14.83;;
16800;SDS011;8518;53.236;10.384;2023-02-23T17:36:42;28.97;;;13.70;;
16800;SDS011;8518;53.236;10.384;2023-02-23T17:39:11;32.73;;;14.37;;
16800;SDS011;8518;53.236;10.384;2023-02-23T17:41:38;29.00;;;11.20;;
16800;SDS011;8518;53.236;10.384;2023-02-23T17:44:03;22.63;;;9.57;;
16800;SDS011;8518;53.236;10.384;2023-02-23T17:46:29;17.73;;;8.17;;
16800;SDS011;8518;53.236;10.384;2023-02-23T17:48:58;17.07;;;8.50;;
16800;SDS011;8518;53.236;10.384;2023-02-23T17:51:24;17.57;;;9.00;;
16800;SDS011;8518;53.236;10.384;2023-02-23T17:53:50;21.73;;;9.90;;
16800;SDS011;8518;53.236;10.384;2023-02-23T17:56:15;19.33;;;8.73;;
16800;SDS011;8518;53.236;10.384;2023-02-23T17:58:41;16.33;;;7.23;;
16800;SDS011;8518;53.236;10.384;2023-02-23T18:01:07;15.93;;;7.27;;
16800;SDS011;8518;53.236;10.384;2023-02-23T18:06:55;29.60;;;9.00;;
16800;SDS011;8518;53.236;10.384;2023-02-23T18:12:43;33.67;;;11.50;;
16800;SDS011;8518;53.236;10.384;2023-02-23T18:15:09;31.67;;;11.37;;
16800;SDS011;8518;53.236;10.384;2023-02-23T18:17:35;25.97;;;9.20;;
16800;SDS011;8518;53.236;10.384;2023-02-23T18:20:01;27.67;;;8.03;;
16800;SDS011;8518;53.236;10.384;2023-02-23T18:25:51;24.27;;;7.20;;
16800;SDS011;8518;53.236;10.384;2023-02-23T18:31:39;22.37;;;7.90;;
16800;SDS011;8518;53.236;10.384;2023-02-23T18:34:05;24.40;;;7.63;;
16800;SDS011;8518;53.236;10.384;2023-02-23T18:36:33;25.00;;;7.50;;
16800;SDS011;8518;53.236;10.384;2023-02-23T18:39:00;29.40;;;7.23;;
16800;SDS011;8518;53.236;10.384;2023-02-23T18:41:28;22.87;;;6.93;;
16800;SDS011;8518;53.236;10.384;2023-02-23T18:43:57;25.33;;;7.13;;
16800;SDS011;8518;53.236;10.384;2023-02-23T18:46:23;23.23;;;5.70;;
16800;SDS011;8518;53.236;10.384;2023-02-23T18:48:49;19.00;;;4.60;;
16800;SDS011;8518;53.236;10.384;2023-02-23T18:51:15;20.87;;;4.67;;
16800;SDS011;8518;53.236;10.384;2023-02-23T18:57:03;23.73;;;5.27;;
16800;SDS011;8518;53.236;10.384;2023-02-23T18:59:29;25.17;;;4.40;;
16800;SDS011;8518;53.236;10.384;2023-02-23T19:05:18;19.57;;;3.70;;
16800;SDS011;8518;53.236;10.384;2023-02-23T19:07:43;20.37;;;4.03;;
16800;SDS011;8518;53.236;10.384;2023-02-23T19:10:10;18.60;;;4.07;;
16800;SDS011;8518;53.236;10.384;2023-02-23T19:16:05;14.83;;;3.73;;
16800;SDS011;8518;53.236;10.384;2023-02-23T19:18:31;17.80;;;3.67;;
16800;SDS011;8518;53.236;10.384;2023-02-23T19:20:57;20.40;;;3.83;;
16800;SDS011;8518;53.236;10.384;2023-02-23T19:26:45;18.83;;;3.90;;
16800;SDS011;8518;53.236;10.384;2023-02-23T19:29:10;23.93;;;4.53;;
16800;SDS011;8518;53.236;10.384;2023-02-23T19:31:36;17.03;;;3.40;;
16800;SDS011;8518;53.236;10.384;2023-02-23T19:34:01;15.63;;;3.43;;
16800;SDS011;8518;53.236;10.384;2023-02-23T19:36:29;16.27;;;3.27;;
16800;SDS011;8518;53.236;10.384;2023-02-23T19:38:59;13.23;;;3.00;;
16800;SDS011;8518;53.236;10.384;2023-02-23T19:41:35;20.07;;;3.73;;
16800;SDS011;8518;53.236;10.384;2023-02-23T19:44:02;19.93;;;3.73;;
16800;SDS011;8518;53.236;10.384;2023-02-23T19:46:28;20.00;;;4.10;;
16800;SDS011;8518;53.236;10.384;2023-02-23T19:48:54;25.57;;;4.23;;
16800;SDS011;8518;53.236;10.384;2023-02-23T19:51:20;18.73;;;3.47;;
16800;SDS011;8518;53.236;10.384;2023-02-23T19:53:46;16.30;;;3.90;;
16800;SDS011;8518;53.236;10.384;2023-02-23T19:56:13;17.30;;;4.43;;
16800;SDS011;8518;53.236;10.384;2023-02-23T19:58:40;16.50;;;3.57;;
16800;SDS011;8518;53.236;10.384;2023-02-23T20:01:11;22.53;;;4.70;;
16800;SDS011;8518;53.236;10.384;2023-02-23T20:07:02;15.87;;;3.43;;
16800;SDS011;8518;53.236;10.384;2023-02-23T20:12:50;15.60;;;3.67;;
16800;SDS011;8518;53.236;10.384;2023-02-23T20:15:17;13.83;;;2.97;;
16800;SDS011;8518;53.236;10.384;2023-02-23T20:17:43;10.90;;;3.50;;
16800;SDS011;8518;53.236;10.384;2023-02-23T20:20:09;13.63;;;3.20;;
16800;SDS011;8518;53.236;10.384;2023-02-23T20:25:59;15.80;;;2.67;;
16800;SDS011;8518;53.236;10.384;2023-02-23T20:31:49;18.77;;;3.57;;
16800;SDS011;8518;53.236;10.384;2023-02-23T20:34:17;16.10;;;3.10;;
16800;SDS011;8518;53.236;10.384;2023-02-23T20:36:45;16.53;;;3.50;;
16800;SDS011;8518;53.236;10.384;2023-02-23T20:39:11;14.93;;;3.57;;
16800;SDS011;8518;53.236;10.384;2023-02-23T20:41:42;12.50;;;3.00;;
16800;SDS011;8518;53.236;10.384;2023-02-23T20:44:10;13.60;;;3.00;;
16800;SDS011;8518;53.236;10.384;2023-02-23T20:46:37;15.80;;;2.87;;
16800;SDS011;8518;53.236;10.384;2023-02-23T20:49:04;17.33;;;3.17;;
16800;SDS011;8518;53.236;10.384;2023-02-23T20:51:39;16.57;;;3.83;;
16800;SDS011;8518;53.236;10.384;2023-02-23T20:54:06;16.07;;;3.10;;
16800;SDS011;8518;53.236;10.384;2023-02-23T20:56:33;13.67;;;3.03;;
16800;SDS011;8518;53.236;10.384;2023-02-23T20:59:02;16.47;;;2.67;;
16800;SDS011;8518;53.236;10.384;2023-02-23T21:01:29;10.27;;;2.77;;
16800;SDS011;8518;53.236;10.384;2023-02-23T21:03:56;10.93;;;2.87;;
16800;SDS011;8518;53.236;10.384;2023-02-23T21:06:25;15.37;;;2.60;;
16800;SDS011;8518;53.236;10.384;2023-02-23T21:08:51;17.97;;;2.87;;
16800;SDS011;8518;53.236;10.384;2023-02-23T21:11:26;15.57;;;3.00;;
16800;SDS011;8518;53.236;10.384;2023-02-23T21:13:56;12.17;;;2.73;;
16800;SDS011;8518;53.236;10.384;2023-02-23T21:16:23;16.77;;;2.63;;
16800;SDS011;8518;53.236;10.384;2023-02-23T21:18:49;12.93;;;2.83;;
16800;SDS011;8518;53.236;10.384;2023-02-23T21:21:20;14.90;;;2.87;;
16800;SDS011;8518;53.236;10.384;2023-02-23T21:23:47;10.83;;;3.03;;
16800;SDS011;8518;53.236;10.384;2023-02-23T21:26:15;9.10;;;2.43;;
16800;SDS011;8518;53.236;10.384;2023-02-23T21:28:41;11.77;;;2.23;;